createdAt,value
2022-08-22T00:01:14.802Z,81.43
2022-08-22T00:02:48.678Z,81.93
2022-08-22T00:03:04.983Z,81.50
2022-08-22T00:03:06.480Z,80.38
2022-08-22T00:03:12.109Z,81.31
2022-08-22T00:04:36.799Z,81.46
2022-08-22T00:08:03.643Z,81.41
2022-08-22T00:11:52.923Z,80.44
2022-08-22T00:15:31.520Z,80.35
2022-08-22T00:18:45.049Z,80.45
2022-08-22T00:21:58.676Z,80.38
2022-08-22T00:25:25.431Z,80.15
2022-08-22T00:28:44.335Z,80.21
2022-08-22T00:31:54.627Z,80.19
2022-08-22T00:35:14.948Z,80.17
2022-08-22T00:38:32.525Z,80.34
2022-08-22T00:42:01.493Z,80.37
2022-08-22T00:45:28.923Z,80.12
2022-08-22T00:48:43.301Z,80.13
2022-08-22T00:52:14.239Z,79.55
2022-08-22T00:55:22.847Z,79.27
2022-08-22T00:58:59.756Z,79.32
2022-08-22T01:02:50.492Z,79.13
2022-08-22T01:06:45.027Z,79.30
2022-08-22T01:10:17.492Z,79.05
2022-08-22T01:13:44.343Z,79.42
2022-08-22T01:16:55.973Z,79.21
2022-08-22T01:20:28.220Z,79.19
2022-08-22T01:24:04.146Z,79.04
2022-08-22T01:27:47.983Z,79.20
2022-08-22T01:31:01.441Z,79.54
2022-08-22T01:34:19.618Z,79.65
2022-08-22T01:37:22.007Z,79.76
2022-08-22T01:40:31.043Z,79.87
2022-08-22T01:44:01.051Z,79.85
2022-08-22T01:47:13.277Z,79.51
2022-08-22T01:50:25.229Z,79.49
2022-08-22T01:53:47.042Z,79.38
2022-08-22T01:56:49.640Z,79.33
2022-08-22T01:59:57.442Z,79.37
2022-08-22T02:03:25.186Z,79.32
2022-08-22T02:06:44.948Z,79.49
2022-08-22T02:10:18.607Z,79.55
2022-08-22T02:13:59.430Z,79.39
2022-08-22T02:17:25.394Z,79.08
2022-08-22T02:20:47.362Z,79.03
2022-08-22T02:23:49.709Z,79.15
2022-08-22T02:27:12.989Z,79.27
2022-08-22T02:30:51.979Z,79.01
2022-08-22T02:34:02.427Z,79.10
2022-08-22T02:37:13.065Z,79.30
2022-08-22T02:40:37.605Z,79.11
2022-08-22T02:43:54.940Z,79.11
2022-08-22T02:47:09.019Z,79.03
2022-08-22T02:50:21.135Z,79.01
2022-08-22T02:53:48.530Z,79.02
2022-08-22T02:57:00.930Z,79.12
2022-08-22T03:00:30.938Z,79.27
2022-08-22T03:03:39.793Z,79.17
2022-08-22T03:07:00.100Z,79.20
2022-08-22T03:10:16.615Z,79.10
2022-08-22T03:13:37.632Z,79.34
2022-08-22T03:16:54.972Z,79.30
2022-08-22T03:20:14.989Z,79.37
2022-08-22T03:23:25.751Z,79.33
2022-08-22T03:26:56.696Z,79.38
2022-08-22T03:30:19.907Z,79.35
2022-08-22T03:33:26.344Z,79.08
2022-08-22T03:36:31.389Z,79.31
2022-08-22T03:40:06.926Z,79.36
2022-08-22T03:43:54.299Z,79.13
2022-08-22T03:47:22.025Z,79.39
2022-08-22T03:50:45.739Z,79.37
2022-08-22T03:54:09.498Z,79.28
2022-08-22T03:57:30.494Z,79.52
2022-08-22T04:00:58.499Z,79.66
2022-08-22T04:04:38.552Z,79.92
2022-08-22T04:08:03.510Z,79.84
2022-08-22T04:11:46.214Z,79.84
2022-08-22T04:15:14.325Z,79.89
2022-08-22T04:18:27.386Z,80.15
2022-08-22T04:21:53.744Z,80.18
2022-08-22T04:25:15.180Z,80.12
2022-08-22T04:28:51.728Z,79.98
2022-08-22T04:32:14.696Z,80.00
2022-08-22T04:35:35.381Z,79.92
2022-08-22T04:38:47.756Z,79.88
2022-08-22T04:42:06.971Z,79.89
2022-08-22T04:45:31.756Z,79.77
2022-08-22T04:48:40.913Z,79.54
2022-08-22T04:52:16.019Z,79.56
2022-08-22T04:55:31.102Z,79.42
2022-08-22T04:58:46.324Z,79.00
2022-08-22T05:01:55.058Z,78.93
2022-08-22T05:05:13.089Z,78.86
2022-08-22T05:08:23.169Z,78.87
2022-08-22T05:11:27.599Z,78.74
2022-08-22T05:14:58.616Z,78.40
2022-08-22T05:18:09.395Z,78.25
2022-08-22T05:21:14.414Z,78.33
2022-08-22T05:24:39.847Z,78.32
2022-08-22T05:27:48.272Z,78.21
2022-08-22T05:30:51.563Z,78.13
2022-08-22T05:34:03.706Z,77.91
2022-08-22T05:37:17.655Z,77.71
2022-08-22T05:40:27.023Z,77.23
2022-08-22T05:43:31.267Z,76.87
2022-08-22T05:46:42.401Z,76.56
2022-08-22T05:50:02.114Z,76.05
2022-08-22T05:53:10.778Z,74.84
2022-08-22T05:56:23.266Z,74.09
2022-08-22T05:59:32.919Z,74.13
2022-08-22T06:02:51.358Z,74.14
2022-08-22T06:05:59.015Z,73.58
2022-08-22T06:09:03.614Z,73.57
2022-08-22T06:12:21.776Z,72.55
2022-08-22T06:15:40.345Z,72.29
2022-08-22T06:18:45.747Z,71.57
2022-08-22T06:21:51.068Z,71.49
2022-08-22T06:25:05.612Z,71.48
2022-08-22T06:28:13.598Z,70.90
2022-08-22T06:31:30.007Z,70.77
2022-08-22T06:34:38.301Z,70.33
2022-08-22T06:37:45.914Z,70.21
2022-08-22T06:40:53.167Z,69.37
2022-08-22T06:43:58.964Z,69.59
2022-08-22T06:47:07.352Z,68.91
2022-08-22T06:50:15.008Z,68.72
2022-08-22T06:53:27.277Z,68.45
2022-08-22T06:56:38.789Z,68.10
2022-08-22T06:59:43.928Z,67.42
2022-08-22T07:02:53.072Z,66.13
2022-08-22T07:05:57.267Z,65.53
2022-08-22T07:09:00.287Z,65.21
2022-08-22T07:12:20.222Z,63.34
2022-08-22T07:15:35.019Z,63.30
2022-08-22T07:18:48.225Z,63.88
2022-08-22T07:21:52.227Z,64.60
2022-08-22T07:25:09.640Z,64.48
2022-08-22T07:28:18.178Z,64.66
2022-08-22T07:31:41.957Z,64.69
2022-08-22T07:35:16.029Z,65.39
2022-08-22T07:38:51.896Z,66.44
2022-08-22T07:42:18.945Z,66.89
2022-08-22T07:45:36.154Z,67.04
2022-08-22T07:49:08.638Z,67.42
2022-08-22T07:52:13.683Z,67.85
2022-08-22T07:55:24.668Z,68.23
2022-08-22T07:58:31.202Z,68.30
2022-08-22T08:01:35.598Z,68.72
2022-08-22T08:04:40.975Z,68.31
2022-08-22T08:07:45.858Z,68.28
2022-08-22T08:10:51.004Z,68.64
2022-08-22T08:13:59.282Z,68.61
2022-08-22T08:17:19.575Z,68.29
2022-08-22T08:20:25.159Z,67.77
2022-08-22T08:23:34.963Z,67.74
2022-08-22T08:27:03.945Z,67.21
2022-08-22T08:30:29.989Z,66.56
2022-08-22T08:33:36.915Z,67.06
2022-08-22T08:37:02.328Z,66.59
2022-08-22T08:40:38.614Z,66.38
2022-08-22T08:44:13.887Z,66.07
2022-08-22T08:47:28.504Z,64.30
2022-08-22T08:51:04.235Z,63.16
2022-08-22T08:54:26.349Z,61.91
2022-08-22T08:57:51.155Z,60.11
2022-08-22T09:01:03.058Z,60.03
2022-08-22T09:04:16.737Z,59.23
2022-08-22T09:08:00.915Z,58.36
2022-08-22T09:11:28.553Z,58.00
2022-08-22T09:14:52.449Z,56.80
2022-08-22T09:18:37.717Z,55.19
2022-08-22T09:21:44.067Z,54.66
2022-08-22T09:24:46.993Z,53.44
2022-08-22T09:28:09.869Z,51.91
2022-08-22T09:31:44.856Z,52.12
2022-08-22T09:35:11.758Z,53.24
2022-08-22T09:38:46.671Z,53.50
2022-08-22T09:42:44.813Z,53.95
2022-08-22T09:46:13.786Z,54.37
2022-08-22T09:49:57.067Z,55.38
2022-08-22T09:53:38.290Z,55.94
2022-08-22T09:57:00.740Z,56.63
2022-08-22T10:00:10.510Z,57.68
2022-08-22T10:03:45.547Z,58.67
2022-08-22T10:07:13.428Z,58.29
2022-08-22T10:10:34.998Z,58.15
2022-08-22T10:14:01.708Z,56.34
2022-08-22T10:17:21.914Z,55.09
2022-08-22T10:20:50.045Z,54.25
2022-08-22T10:24:14.494Z,54.53
2022-08-22T10:27:57.531Z,54.63
2022-08-22T10:31:08.014Z,54.95
2022-08-22T10:34:20.316Z,55.94
2022-08-22T10:37:32.732Z,55.92
2022-08-22T10:40:52.067Z,55.67
2022-08-22T10:44:17.912Z,55.05
2022-08-22T10:47:52.534Z,53.19
2022-08-22T10:51:10.032Z,51.58
2022-08-22T10:54:28.907Z,50.01
2022-08-22T10:57:44.158Z,49.01
2022-08-22T11:00:54.994Z,48.11
2022-08-22T11:04:19.819Z,47.06
2022-08-22T11:07:50.676Z,47.47
2022-08-22T11:11:16.048Z,46.59
2022-08-22T11:14:31.572Z,46.59
2022-08-22T11:17:54.527Z,47.30
2022-08-22T11:21:00.960Z,47.95
2022-08-22T11:25:04.714Z,47.64
2022-08-22T11:28:26.197Z,48.01
2022-08-22T11:32:06.225Z,47.40
2022-08-22T11:35:26.158Z,47.03
2022-08-22T11:38:53.949Z,45.91
2022-08-22T11:42:13.584Z,44.31
2022-08-22T11:45:25.680Z,40.37
2022-08-22T11:48:51.326Z,39.53
2022-08-22T11:52:13.341Z,38.62
2022-08-22T11:55:34.671Z,38.71
2022-08-22T11:59:10.479Z,39.27
2022-08-22T12:02:27.100Z,40.72
2022-08-22T12:05:41.494Z,42.16
2022-08-22T12:08:49.463Z,43.18
2022-08-22T12:12:31.020Z,44.45
2022-08-22T12:15:39.496Z,45.99
2022-08-22T12:19:19.509Z,48.90
2022-08-22T12:22:50.022Z,50.83
2022-08-22T12:26:04.919Z,50.97
2022-08-22T12:29:34.128Z,50.89
2022-08-22T12:33:10.304Z,50.88
2022-08-22T12:36:34.321Z,51.08
2022-08-22T12:39:44.011Z,50.67
2022-08-22T12:42:57.423Z,50.51
2022-08-22T12:46:13.094Z,50.31
2022-08-22T12:49:57.395Z,50.61
2022-08-22T12:53:09.268Z,50.78
2022-08-22T12:56:31.573Z,50.71
2022-08-22T12:59:41.675Z,50.89
2022-08-22T13:02:45.375Z,50.65
2022-08-22T13:05:56.261Z,50.01
2022-08-22T13:09:11.074Z,50.65
2022-08-22T13:12:25.719Z,51.57
2022-08-22T13:15:31.917Z,53.64
2022-08-22T13:18:47.320Z,56.42
2022-08-22T13:22:11.809Z,59.06
2022-08-22T13:25:25.452Z,60.28
2022-08-22T13:28:31.881Z,60.78
2022-08-22T13:31:38.810Z,60.49
2022-08-22T13:34:50.589Z,60.49
2022-08-22T13:38:03.291Z,61.53
2022-08-22T13:41:08.952Z,61.58
2022-08-22T13:44:31.450Z,61.91
2022-08-22T13:47:45.704Z,62.25
2022-08-22T13:51:03.696Z,61.60
2022-08-22T13:54:11.106Z,60.82
2022-08-22T13:57:17.830Z,60.83
2022-08-22T14:00:28.652Z,61.94
2022-08-22T14:03:49.101Z,61.02
2022-08-22T14:06:56.682Z,61.45
2022-08-22T14:10:20.181Z,61.00
2022-08-22T14:13:44.727Z,61.05
2022-08-22T14:16:52.059Z,60.93
2022-08-22T14:20:02.167Z,61.59
2022-08-22T14:23:27.295Z,62.02
2022-08-22T14:26:37.267Z,63.04
2022-08-22T14:29:55.166Z,64.57
2022-08-22T14:33:20.823Z,65.48
2022-08-22T14:36:29.666Z,67.11
2022-08-22T14:39:48.033Z,66.73
2022-08-22T14:43:15.280Z,67.14
2022-08-22T14:46:33.928Z,66.65
2022-08-22T14:49:55.444Z,66.89
2022-08-22T14:53:25.117Z,67.06
2022-08-22T14:56:30.092Z,67.95
2022-08-22T14:59:37.071Z,66.91
2022-08-22T15:02:41.111Z,67.47
2022-08-22T15:06:21.866Z,66.49
2022-08-22T15:09:40.538Z,66.43
2022-08-22T15:12:51.472Z,65.86
2022-08-22T15:15:59.795Z,63.69
2022-08-22T15:19:23.048Z,63.83
2022-08-22T15:22:28.004Z,64.25
2022-08-22T15:25:35.234Z,64.12
2022-08-22T15:28:52.494Z,63.81
2022-08-22T15:32:01.089Z,63.58
2022-08-22T15:35:11.548Z,63.12
2022-08-22T15:38:28.539Z,63.63
2022-08-22T15:41:36.249Z,63.38
2022-08-22T15:44:44.230Z,63.08
2022-08-22T15:47:52.095Z,63.50
2022-08-22T15:51:10.391Z,63.69
2022-08-22T15:54:35.954Z,64.69
2022-08-22T15:57:47.480Z,65.67
2022-08-22T16:01:19.783Z,66.79
2022-08-22T16:04:37.627Z,67.57
2022-08-22T16:07:46.014Z,67.42
2022-08-22T16:11:24.158Z,67.41
2022-08-22T16:14:32.927Z,67.79
2022-08-22T16:17:43.189Z,67.69
2022-08-22T16:20:51.901Z,67.19
2022-08-22T16:23:56.382Z,67.22
2022-08-22T16:27:14.496Z,67.31
2022-08-22T16:30:32.720Z,67.23
2022-08-22T16:33:40.651Z,67.19
2022-08-22T16:36:49.529Z,67.04
2022-08-22T16:40:01.657Z,66.95
2022-08-22T16:43:19.949Z,67.00
2022-08-22T16:46:33.205Z,67.37
2022-08-22T16:49:55.738Z,67.73
2022-08-22T16:53:10.326Z,68.04
2022-08-22T16:56:35.058Z,68.04
2022-08-22T16:59:55.576Z,68.50
2022-08-22T17:03:23.445Z,69.39
2022-08-22T17:06:50.779Z,69.55
2022-08-22T17:10:10.212Z,69.37
2022-08-22T17:13:20.636Z,69.27
2022-08-22T17:16:41.279Z,69.30
2022-08-22T17:20:05.617Z,68.68
2022-08-22T17:23:42.098Z,69.30
2022-08-22T17:26:57.793Z,70.01
2022-08-22T17:30:12.121Z,70.30
2022-08-22T17:33:28.527Z,70.63
2022-08-22T17:36:39.395Z,71.21
2022-08-22T17:39:56.529Z,71.89
2022-08-22T17:43:14.999Z,72.30
2022-08-22T17:46:35.811Z,72.25
2022-08-22T17:49:41.400Z,72.50
2022-08-22T17:52:55.537Z,72.79
2022-08-22T17:56:14.196Z,72.79
2022-08-22T17:59:26.358Z,73.11
2022-08-22T18:02:39.365Z,73.04
2022-08-22T18:06:09.303Z,73.14
2022-08-22T18:09:25.816Z,73.10
2022-08-22T18:12:44.712Z,72.73
2022-08-22T18:15:52.196Z,72.34
2022-08-22T18:18:57.693Z,71.74
2022-08-22T18:22:07.825Z,72.27
2022-08-22T18:25:20.020Z,72.94
2022-08-22T18:28:34.130Z,73.17
2022-08-22T18:32:17.431Z,73.19
2022-08-22T18:35:49.850Z,73.13
2022-08-22T18:39:22.036Z,73.46
2022-08-22T18:42:35.170Z,73.58
2022-08-22T18:45:47.086Z,73.55
2022-08-22T18:49:14.251Z,73.45
2022-08-22T18:52:18.535Z,73.66
2022-08-22T18:55:51.660Z,73.71
2022-08-22T18:59:13.005Z,73.77
2022-08-22T19:02:41.349Z,73.68
2022-08-22T19:06:09.350Z,73.57
2022-08-22T19:09:32.153Z,73.49
2022-08-22T19:12:50.141Z,73.36
2022-08-22T19:16:25.306Z,73.57
2022-08-22T19:20:02.183Z,74.21
2022-08-22T19:23:33.972Z,74.52
2022-08-22T19:26:43.881Z,74.82
2022-08-22T19:29:46.303Z,74.79
2022-08-22T19:32:49.991Z,74.73
2022-08-22T19:35:52.568Z,74.49
2022-08-22T19:39:09.122Z,74.62
2022-08-22T19:42:27.683Z,75.12
2022-08-22T19:45:32.310Z,75.40
2022-08-22T19:48:44.585Z,75.84
2022-08-22T19:51:59.736Z,76.05
2022-08-22T19:55:08.834Z,76.01
2022-08-22T19:58:41.049Z,75.79
2022-08-22T20:01:51.214Z,75.89
2022-08-22T20:05:03.546Z,76.24
2022-08-22T20:08:11.558Z,76.62
2022-08-22T20:12:02.753Z,77.04
2022-08-22T20:15:26.793Z,77.84
2022-08-22T20:19:06.612Z,78.37
2022-08-22T20:22:24.356Z,78.42
2022-08-22T20:25:50.314Z,78.33
2022-08-22T20:28:54.236Z,78.85
2022-08-22T20:31:59.065Z,79.22
2022-08-22T20:35:05.624Z,79.21
2022-08-22T20:38:16.834Z,79.42
2022-08-22T20:41:22.534Z,79.54
2022-08-22T20:44:28.553Z,79.41
2022-08-22T20:47:41.138Z,79.34
2022-08-22T20:50:44.764Z,79.57
2022-08-22T20:54:02.300Z,79.66
2022-08-22T20:57:19.293Z,79.84
2022-08-22T21:00:41.119Z,80.00
2022-08-22T21:03:50.882Z,80.05
2022-08-22T21:07:02.297Z,80.13
2022-08-22T21:10:42.916Z,80.23
2022-08-22T21:13:49.086Z,80.17
2022-08-22T21:16:53.215Z,79.83
2022-08-22T21:19:57.932Z,79.71
2022-08-22T21:23:08.838Z,79.81
2022-08-22T21:26:28.808Z,80.01
2022-08-22T21:29:42.219Z,79.68
2022-08-22T21:32:52.294Z,79.17
2022-08-22T21:35:59.561Z,79.34
2022-08-22T21:39:12.631Z,79.19
2022-08-22T21:42:26.772Z,79.48
2022-08-22T21:45:34.297Z,79.18
2022-08-22T21:49:02.786Z,79.00
2022-08-22T21:52:05.301Z,79.01
2022-08-22T21:55:38.895Z,79.25
2022-08-22T21:58:42.280Z,79.29
2022-08-22T22:01:47.230Z,79.41
2022-08-22T22:04:50.216Z,79.10
2022-08-22T22:07:52.846Z,79.32
2022-08-22T22:11:01.290Z,79.28
2022-08-22T22:14:04.100Z,79.24
2022-08-22T22:17:06.845Z,79.33
2022-08-22T22:20:10.051Z,79.48
2022-08-22T22:23:12.969Z,79.38
2022-08-22T22:26:15.515Z,79.17
2022-08-22T22:29:19.376Z,79.11
2022-08-22T22:32:22.437Z,79.22
2022-08-22T22:35:25.300Z,78.93
2022-08-22T22:38:27.939Z,78.62
2022-08-22T22:41:30.796Z,78.50
2022-08-22T22:44:33.523Z,78.64
2022-08-22T22:47:37.627Z,78.49
2022-08-22T22:50:40.684Z,78.21
2022-08-22T22:53:44.900Z,78.24
2022-08-22T22:56:48.031Z,78.11
2022-08-22T22:59:51.144Z,78.05
2022-08-22T23:02:53.707Z,78.22
2022-08-22T23:05:56.311Z,78.35
2022-08-22T23:08:59.020Z,78.34
2022-08-22T23:12:03.190Z,78.33
2022-08-22T23:15:08.254Z,78.38
2022-08-22T23:18:11.087Z,78.40
2022-08-22T23:21:19.918Z,78.28
2022-08-22T23:24:24.001Z,78.32
2022-08-22T23:27:26.687Z,78.35
2022-08-22T23:30:30.309Z,78.48
2022-08-22T23:33:35.227Z,78.57
2022-08-22T23:36:39.534Z,78.46
2022-08-22T23:39:42.971Z,78.94
2022-08-22T23:42:45.782Z,79.15
2022-08-22T23:45:48.468Z,79.64
2022-08-22T23:48:51.573Z,80.22
2022-08-22T23:51:54.778Z,80.30
2022-08-22T23:54:57.599Z,80.38
2022-08-22T23:58:00.405Z,80.55
